Time;durP1;ratioP1;P1;durP2;ratioP2;P2;SDS_P1;SDS_P2;PMS_P1;PMS_P2;Temp;Humidity;BMP_temperature;BMP_pressure;BME280_temperature;BME280_humidity;BME280_pressure;Samples;Min_cycle;Max_cycle;Signal;HPM_P1;HPM_P2
2023/09/22 00:02:08;;;;;;;1.50;1.02;;;20.60;87.90;;;;;;5015474;28;20084;-30
2023/09/22 00:04:35;;;;;;;1.63;1.23;;;20.10;75.20;;;;;;5014813;28;20129;-30
2023/09/22 00:07:02;;;;;;;1.02;0.95;;;20.30;88.40;;;;;;5015298;28;20442;-30
2023/09/22 00:09:30;;;;;;;1.33;1.00;;;20.00;87.70;;;;;;5015137;28;20133;-30
2023/09/22 00:11:57;;;;;;;1.33;1.02;;;20.90;81.70;;;;;;5015449;28;20132;-30
2023/09/22 00:14:24;;;;;;;1.40;1.08;;;20.20;87.90;;;;;;5015040;28;20046;-30
2023/09/22 00:16:50;;;;;;;1.88;0.98;;;20.20;87.70;;;;;;5014867;28;20583;-30
2023/09/22 00:19:18;;;;;;;1.10;1.00;;;;;;;;;;5014835;28;20137;-29
2023/09/22 00:21:44;;;;;;;1.08;0.90;;;20.40;80.20;;;;;;5014974;28;20137;-31
2023/09/22 00:24:11;;;;;;;2.42;1.00;;;20.50;88.60;;;;;;5015056;28;20484;-30
2023/09/22 00:26:39;;;;;;;1.23;0.90;;;20.60;73.60;;;;;;5014400;28;20133;-30
2023/09/22 00:29:06;;;;;;;1.05;0.95;;;19.40;71.50;;;;;;5015193;28;20136;-30
2023/09/22 00:31:32;;;;;;;1.17;0.95;;;20.10;75.80;;;;;;5014871;28;20129;-30
2023/09/22 00:33:59;;;;;;;1.17;0.98;;;20.60;88.30;;;;;;5014664;28;20056;-30
2023/09/22 00:36:26;;;;;;;3.83;1.20;;;;;;;;;;5013750;28;20116;-31
2023/09/22 00:38:53;;;;;;;1.00;0.90;;;20.70;88.20;;;;;;5014445;28;20132;-31
2023/09/22 00:41:19;;;;;;;1.10;0.90;;;20.30;88.50;;;;;;5014719;28;20133;-30
2023/09/22 00:43:48;;;;;;;1.83;0.90;;;20.30;76.30;;;;;;5014836;28;20128;-30
2023/09/22 00:46:16;;;;;;;1.75;1.10;;;20.40;77.70;;;;;;5014151;28;20046;-30
2023/09/22 00:48:43;;;;;;;1.77;0.90;;;19.90;87.30;;;;;;5014458;28;20460;-30
2023/09/22 00:51:09;;;;;;;1.50;0.90;;;20.60;88.60;;;;;;5014419;28;20128;-30
2023/09/22 00:53:36;;;;;;;0.80;0.80;;;20.60;88.60;;;;;;5016059;28;20518;-30
2023/09/22 00:56:03;;;;;;;1.17;1.00;;;20.90;81.80;;;;;;5033816;28;20132;-31
2023/09/22 00:58:31;;;;;;;1.20;1.00;;;;;;;;;;5034167;28;20126;-30
2023/09/22 01:00:59;;;;;;;1.15;1.00;;;20.80;88.70;;;;;;5034311;28;20045;-30
2023/09/22 01:03:25;;;;;;;1.15;1.00;;;20.60;87.70;;;;;;5032792;28;20129;-30
2023/09/22 01:05:52;;;;;;;1.10;0.90;;;20.00;85.80;;;;;;5034157;28;20103;-30
2023/09/22 01:08:19;;;;;;;1.20;1.00;;;;;;;;;;5033927;28;20129;-30
2023/09/22 01:10:46;;;;;;;1.35;1.20;;;20.70;88.60;;;;;;5021049;28;20133;-30
2023/09/22 01:13:13;;;;;;;1.25;1.05;;;;;;;;;;5013776;28;20050;-30
2023/09/22 01:15:41;;;;;;;1.17;1.08;;;20.30;71.40;;;;;;5014004;28;20049;-30
2023/09/22 01:18:10;;;;;;;1.20;1.00;;;20.60;87.70;;;;;;5013629;28;20060;-30
2023/09/22 01:20:39;;;;;;;1.85;1.23;;;20.30;71.40;;;;;;5013787;28;20050;-31
2023/09/22 01:23:07;;;;;;;1.60;1.20;;;20.30;87.90;;;;;;5013716;28;20093;-30
2023/09/22 01:25:35;;;;;;;1.10;1.00;;;;;;;;;;5013544;28;20056;-30
2023/09/22 01:28:02;;;;;;;1.58;1.30;;;20.20;82.40;;;;;;5013461;28;20092;-30
2023/09/22 01:30:28;;;;;;;2.25;1.25;;;19.90;87.30;;;;;;5013715;28;20129;-30
2023/09/22 01:32:55;;;;;;;2.25;1.00;;;20.60;87.70;;;;;;5013579;28;20100;-31
2023/09/22 01:35:22;;;;;;;1.10;1.00;;;20.20;78.60;;;;;;5013516;28;20128;-31
2023/09/22 01:37:55;;;;;;;1.50;1.30;;;20.70;88.50;;;;;;5012656;28;20137;-31
2023/09/22 01:40:23;;;;;;;3.33;1.50;;;20.50;87.50;;;;;;5013606;28;20153;-30
2023/09/22 01:42:49;;;;;;;1.88;1.50;;;20.50;85.20;;;;;;4993661;28;20211;-31
2023/09/22 01:45:16;;;;;;;1.88;1.50;;;20.20;80.90;;;;;;4994100;28;20129;-31
2023/09/22 01:47:43;;;;;;;1.83;1.50;;;20.60;88.50;;;;;;4993486;28;20551;-31
2023/09/22 01:50:10;;;;;;;1.75;1.30;;;20.20;88.50;;;;;;4997020;28;20089;-31
2023/09/22 01:52:37;;;;;;;1.80;1.40;;;20.20;83.80;;;;;;5013029;28;20606;-31
2023/09/22 01:55:05;;;;;;;1.80;1.52;;;20.30;71.30;;;;;;5026911;28;20127;-30
2023/09/22 01:57:33;;;;;;;1.77;1.50;;;21.00;88.70;;;;;;5032607;28;20521;-31
2023/09/22 02:00:00;;;;;;;1.55;1.45;;;;;;;;;;5033155;28;20049;-31
2023/09/22 02:02:27;;;;;;;1.33;1.20;;;21.00;83.20;;;;;;5033061;28;20137;-30
2023/09/22 02:04:54;;;;;;;1.58;1.48;;;20.00;87.40;;;;;;5032962;28;20124;-30
2023/09/22 02:07:21;;;;;;;1.83;1.63;;;;;;;;;;5019564;28;20077;-30
2023/09/22 02:09:48;;;;;;;1.88;1.40;;;;;;;;;;5012797;28;20137;-31
2023/09/22 02:12:15;;;;;;;2.00;1.63;;;;;;;;;;5012827;28;20046;-29
2023/09/22 02:14:43;;;;;;;1.60;1.40;;;19.40;74.90;;;;;;5012823;28;20153;-30
2023/09/22 02:17:10;;;;;;;1.67;1.40;;;20.50;88.00;;;;;;5012805;28;20133;-31
2023/09/22 02:19:38;;;;;;;1.85;1.60;;;20.10;88.40;;;;;;5012806;28;20132;-30
2023/09/22 02:22:05;;;;;;;2.00;1.63;;;19.20;76.20;;;;;;5012609;28;20050;-31
2023/09/22 02:24:32;;;;;;;2.05;1.70;;;20.80;87.80;;;;;;5012622;28;20050;-31
2023/09/22 02:26:58;;;;;;;1.73;1.60;;;20.50;87.80;;;;;;5012085;28;20081;-31
2023/09/22 02:29:25;;;;;;;1.60;1.50;;;;;;;;;;5012983;28;20133;-30
2023/09/22 02:31:54;;;;;;;1.80;1.60;;;21.30;88.10;;;;;;5012597;28;20128;-30
2023/09/22 02:34:21;;;;;;;1.60;1.42;;;;;;;;;;5012655;28;20045;-31
2023/09/22 02:36:48;;;;;;;1.95;1.60;;;;;;;;;;5011805;28;20129;-30
2023/09/22 02:39:16;;;;;;;2.30;1.63;;;20.20;87.80;;;;;;5012158;28;20119;-31
2023/09/22 02:41:43;;;;;;;1.70;1.50;;;20.00;88.20;;;;;;5012679;28;20210;-31
2023/09/22 02:44:10;;;;;;;2.75;1.70;;;20.40;87.60;;;;;;5012495;28;20733;-31
2023/09/22 02:46:36;;;;;;;1.92;1.60;;;20.50;88.50;;;;;;5012141;28;20468;-31
2023/09/22 02:49:05;;;;;;;1.98;1.63;;;19.60;78.50;;;;;;5012409;28;20050;-31
2023/09/22 02:51:32;;;;;;;2.97;1.40;;;;;;;;;;5012244;28;20407;-30
2023/09/22 02:53:59;;;;;;;2.00;1.50;;;20.50;87.90;;;;;;5017131;28;20424;-30
2023/09/22 02:56:28;;;;;;;2.88;1.50;;;20.70;87.80;;;;;;5015849;28;20069;-31
2023/09/22 02:58:56;;;;;;;2.10;1.70;;;20.00;78.50;;;;;;5012324;28;20081;-30
2023/09/22 03:01:24;;;;;;;1.83;1.63;;;;;;;;;;5012308;28;20458;-30
2023/09/22 03:03:51;;;;;;;2.22;1.85;;;20.40;75.20;;;;;;5011977;28;20491;-31
2023/09/22 03:06:19;;;;;;;2.08;1.60;;;20.30;87.80;;;;;;5011934;28;20133;-31
2023/09/22 03:08:47;;;;;;;1.92;1.67;;;20.20;87.50;;;;;;5012208;28;20678;-31
2023/09/22 03:11:13;;;;;;;2.60;2.10;;;19.60;88.00;;;;;;5011760;28;20113;-30
2023/09/22 03:13:40;;;;;;;2.25;1.70;;;21.00;83.30;;;;;;5012101;28;20088;-31
2023/09/22 03:16:07;;;;;;;2.97;1.85;;;21.30;75.30;;;;;;5011618;28;20092;-30
2023/09/22 03:18:33;;;;;;;2.47;1.80;;;19.20;86.80;;;;;;5012013;28;20137;-30
2023/09/22 03:21:01;;;;;;;2.08;1.80;;;20.30;87.80;;;;;;5011987;28;20133;-31
2023/09/22 03:23:30;;;;;;;2.42;1.73;;;20.20;71.20;;;;;;5012058;28;20598;-30
2023/09/22 03:25:56;;;;;;;1.80;1.60;;;20.70;87.70;;;;;;5011836;28;20140;-30
2023/09/22 03:28:23;;;;;;;2.75;2.10;;;19.80;79.20;;;;;;5014553;28;20554;-31
2023/09/22 03:30:50;;;;;;;2.30;1.90;;;20.60;87.70;;;;;;5015941;28;20132;-31
2023/09/22 03:33:17;;;;;;;2.13;1.80;;;;;;;;;;5015851;28;20573;-30
2023/09/22 03:35:44;;;;;;;2.25;2.00;;;19.90;87.50;;;;;;5015672;28;20570;-31
2023/09/22 03:38:10;;;;;;;2.75;2.00;;;20.50;87.60;;;;;;5015138;28;20518;-31
2023/09/22 03:40:41;;;;;;;2.55;2.20;;;20.10;71.10;;;;;;5015925;28;20129;-30
2023/09/22 03:43:08;;;;;;;2.25;1.95;;;;;;;;;;5015328;28;20096;-29
2023/09/22 03:45:35;;;;;;;2.42;2.20;;;20.20;87.40;;;;;;5014870;28;20042;-31
2023/09/22 03:48:04;;;;;;;1.85;1.73;;;18.90;77.20;;;;;;5008726;28;20795;-31
2023/09/22 03:50:30;;;;;;;2.63;2.30;;;19.60;87.90;;;;;;4996263;28;20098;-31
2023/09/22 03:52:57;;;;;;;2.40;2.10;;;20.10;87.80;;;;;;4996191;28;20137;-31
2023/09/22 03:55:24;;;;;;;2.53;2.13;;;;;;;;;;5028944;28;20060;-31
2023/09/22 03:57:52;;;;;;;2.63;2.30;;;20.00;87.70;;;;;;5034815;28;20092;-31
2023/09/22 04:00:24;;;;;;;3.47;2.25;;;20.50;87.60;;;;;;5022404;28;20053;-31
2023/09/22 04:02:52;;;;;;;2.70;2.30;;;20.10;87.40;;;;;;5015625;28;20050;-31
2023/09/22 04:05:19;;;;;;;2.80;2.15;;;19.70;87.20;;;;;;5015428;28;20108;-31
2023/09/22 04:07:46;;;;;;;3.58;2.40;;;;;;;;;;5015212;28;20152;-30
2023/09/22 04:10:15;;;;;;;3.78;2.60;;;;;;;;;;5015296;28;20078;-31
2023/09/22 04:12:42;;;;;;;3.00;2.58;;;20.10;88.20;;;;;;5013721;28;20483;-31
2023/09/22 04:15:11;;;;;;;2.70;2.35;;;19.60;70.80;;;;;;5014469;28;20100;-31
2023/09/22 04:17:38;;;;;;;2.97;2.40;;;20.00;87.70;;;;;;5014438;28;20125;-31
2023/09/22 04:20:07;;;;;;;2.80;2.40;;;20.00;71.00;;;;;;5015226;28;20049;-30
2023/09/22 04:22:34;;;;;;;3.85;2.90;;;20.20;87.40;;;;;;5014767;28;20138;-31
2023/09/22 04:25:07;;;;;;;3.65;2.88;;;19.80;81.50;;;;;;5014879;28;20138;-31
2023/09/22 04:27:36;;;;;;;3.47;2.83;;;19.70;87.20;;;;;;5014555;28;20045;-31
2023/09/22 04:30:03;;;;;;;3.05;2.70;;;20.20;87.50;;;;;;5015168;28;20056;-31
2023/09/22 04:32:33;;;;;;;3.03;2.72;;;18.90;77.80;;;;;;5013724;28;20064;-31
2023/09/22 04:35:00;;;;;;;3.42;2.95;;;19.80;73.20;;;;;;5014455;28;20049;-31
2023/09/22 04:37:27;;;;;;;3.25;2.75;;;20.40;72.70;;;;;;5013822;28;20085;-31
2023/09/22 04:39:54;;;;;;;3.22;2.90;;;;;;;;;;5014750;28;20053;-31
2023/09/22 04:42:22;;;;;;;3.10;2.80;;;;;;;;;;5014687;28;20446;-31
2023/09/22 04:44:50;;;;;;;4.30;3.15;;;20.20;85.60;;;;;;5014445;28;20054;-32
2023/09/22 04:47:17;;;;;;;3.63;2.97;;;;;;;;;;5014316;28;20050;-30
2023/09/22 04:49:45;;;;;;;3.55;3.25;;;19.90;87.60;;;;;;5013940;28;20137;-31
2023/09/22 04:52:12;;;;;;;3.30;2.90;;;20.00;87.60;;;;;;5014690;28;20081;-31
2023/09/22 04:54:40;;;;;;;4.57;3.22;;;20.20;88.30;;;;;;5024685;28;20049;-31
2023/09/22 04:57:06;;;;;;;4.05;3.28;;;19.60;87.90;;;;;;5034073;28;20411;-31
2023/09/22 04:59:33;;;;;;;4.53;3.10;;;19.80;87.60;;;;;;5034176;28;20081;-31
2023/09/22 05:02:00;;;;;;;4.32;3.53;;;;;;;;;;5021312;28;20149;-31
2023/09/22 05:04:28;;;;;;;4.13;3.28;;;20.20;87.50;;;;;;5013651;28;20053;-32
2023/09/22 05:06:57;;;;;;;4.75;3.30;;;18.90;86.70;;;;;;5013606;28;20053;-31
2023/09/22 05:09:24;;;;;;;3.42;3.10;;;;;;;;;;5013275;28;20119;-31
2023/09/22 05:11:52;;;;;;;3.67;3.38;;;19.80;87.50;;;;;;5013291;28;20128;-31
2023/09/22 05:14:18;;;;;;;4.25;3.00;;;19.00;85.00;;;;;;5013875;28;20084;-31
2023/09/22 05:16:45;;;;;;;3.40;3.10;;;20.30;87.80;;;;;;5012916;28;20472;-32
2023/09/22 05:19:12;;;;;;;3.50;3.10;;;20.00;87.30;;;;;;5013422;28;20085;-31
2023/09/22 05:21:40;;;;;;;3.83;3.42;;;;;;;;;;5012301;28;20223;-31
2023/09/22 05:24:08;;;;;;;4.00;3.13;;;20.40;72.30;;;;;;5012567;28;20096;-31
2023/09/22 05:26:35;;;;;;;3.30;3.00;;;19.80;87.40;;;;;;5012894;28;20045;-31
2023/09/22 05:29:03;;;;;;;3.63;3.25;;;20.00;87.30;;;;;;5011152;28;20128;-32
2023/09/22 05:31:29;;;;;;;5.43;3.40;;;20.10;87.30;;;;;;5013612;28;20415;-32
2023/09/22 05:33:56;;;;;;;4.80;3.45;;;;;;;;;;5013081;28;20054;-31
2023/09/22 05:36:23;;;;;;;5.00;4.03;;;;;;;;;;5010238;28;20124;-28
2023/09/22 05:38:50;;;;;;;3.92;3.50;;;20.30;88.20;;;;;;5012409;28;20129;-32
2023/09/22 05:41:18;;;;;;;4.68;4.00;;;19.90;70.60;;;;;;5013289;28;20128;-31
2023/09/22 05:43:45;;;;;;;4.07;3.33;;;;;;;;;;5013170;28;20125;-30
2023/09/22 05:46:12;;;;;;;4.22;3.60;;;20.20;76.80;;;;;;5012991;28;20046;-30
2023/09/22 05:48:39;;;;;;;4.18;3.47;;;;;;;;;;5010139;28;20567;-30
2023/09/22 05:51:06;;;;;;;4.78;3.80;;;19.60;87.20;;;;;;5011952;28;20558;-31
2023/09/22 05:53:35;;;;;;;4.70;3.65;;;;;;;;;;5014397;28;20081;-31
2023/09/22 05:56:06;;;;;;;4.65;3.92;;;19.80;82.70;;;;;;5010471;28;20524;-31
2023/09/22 05:58:34;;;;;;;4.63;3.70;;;19.60;87.80;;;;;;5012617;28;20136;-31
2023/09/22 06:01:07;;;;;;;5.13;4.30;;;19.90;70.50;;;;;;5010096;28;20076;-31
2023/09/22 06:03:34;;;;;;;4.40;3.97;;;;;;;;;;5012812;28;20060;-31
2023/09/22 06:06:05;;;;;;;4.55;3.95;;;19.20;86.80;;;;;;5012463;28;20053;-31
2023/09/22 06:08:32;;;;;;;4.75;4.00;;;;;;;;;;5012673;28;20128;-31
2023/09/22 06:10:59;;;;;;;4.90;4.40;;;20.60;87.50;;;;;;5014511;28;20129;-31
2023/09/22 06:13:26;;;;;;;5.18;3.95;;;19.90;87.40;;;;;;5012336;28;20065;-31
2023/09/22 06:15:55;;;;;;;5.07;4.00;;;20.00;87.20;;;;;;5012196;28;20046;-31
2023/09/22 06:18:22;;;;;;;4.40;3.83;;;20.00;87.30;;;;;;5012186;28;20562;-31
2023/09/22 06:20:49;;;;;;;4.63;3.85;;;18.80;86.40;;;;;;5012317;28;20061;-31
2023/09/22 06:23:16;;;;;;;3.83;3.42;;;20.00;87.60;;;;;;5013006;28;20054;-31
2023/09/22 06:25:43;;;;;;;5.75;4.20;;;20.60;87.50;;;;;;5013053;28;20046;-31
2023/09/22 06:28:10;;;;;;;4.82;4.20;;;19.20;87.60;;;;;;5001947;28;20515;-31
2023/09/22 06:30:37;;;;;;;5.10;4.47;;;;;;;;;;4993361;28;20050;-31
2023/09/22 06:33:05;;;;;;;4.60;4.10;;;20.40;87.70;;;;;;4992976;28;20503;-31
2023/09/22 06:35:32;;;;;;;6.07;4.55;;;20.30;87.30;;;;;;4993230;28;20050;-31
2023/09/22 06:37:59;;;;;;;4.63;3.80;;;19.70;87.30;;;;;;5009452;28;20129;-31
2023/09/22 06:40:26;;;;;;;4.85;4.03;;;20.10;87.20;;;;;;5012524;28;20057;-31
2023/09/22 06:42:53;;;;;;;5.38;4.18;;;19.60;78.30;;;;;;5012411;28;20053;-31
2023/09/22 06:45:20;;;;;;;5.20;3.92;;;20.20;87.40;;;;;;5012742;28;20099;-31
2023/09/22 06:47:48;;;;;;;4.68;4.15;;;;;;;;;;5012449;28;20098;-30
2023/09/22 06:50:17;;;;;;;4.20;3.75;;;19.90;70.50;;;;;;5009407;28;20488;-30
2023/09/22 06:52:44;;;;;;;4.30;3.78;;;20.30;87.40;;;;;;5006996;28;20070;-31
2023/09/22 06:55:13;;;;;;;6.25;4.20;;;20.00;87.30;;;;;;5022045;28;20103;-32
2023/09/22 06:57:40;;;;;;;4.00;3.60;;;19.60;87.30;;;;;;5019526;28;20058;-31
2023/09/22 07:00:15;;;;;;;6.45;3.92;;;19.90;70.50;;;;;;5012472;28;20050;-31
2023/09/22 07:02:42;;;;;;;4.57;4.07;;;20.00;73.90;;;;;;5011897;28;20106;-31
2023/09/22 07:05:10;;;;;;;5.45;4.32;;;18.80;86.60;;;;;;5012525;28;20384;-32
2023/09/22 07:07:38;;;;;;;4.38;3.97;;;20.00;87.60;;;;;;4998104;28;20078;-31
2023/09/22 07:10:07;;;;;;;5.25;3.85;;;20.00;87.20;;;;;;4992475;28;20130;-31
2023/09/22 07:12:34;;;;;;;4.88;4.38;;;19.80;81.60;;;;;;5011365;28;20052;-29
2023/09/22 07:15:01;;;;;;;4.88;3.90;;;20.10;87.20;;;;;;5006350;28;20109;-29
2023/09/22 07:17:27;;;;;;;4.97;3.67;;;20.00;87.20;;;;;;5011103;28;20084;-29
2023/09/22 07:19:54;;;;;;;5.70;4.10;;;;;;;;;;5011896;28;20521;-29
2023/09/22 07:22:21;;;;;;;4.68;4.00;;;20.20;87.70;;;;;;5011988;28;20580;-28
2023/09/22 07:24:52;;;;;;;4.80;3.92;;;19.90;70.60;;;;;;5012013;28;20129;-31
2023/09/22 07:27:19;;;;;;;4.30;3.67;;;19.80;87.40;;;;;;5011170;28;20050;-29
2023/09/22 07:29:50;;;;;;;4.40;3.75;;;20.10;87.30;;;;;;5012353;28;20124;-31
2023/09/22 07:32:16;;;;;;;5.03;4.15;;;20.30;72.90;;;;;;5012313;28;20050;-31
2023/09/22 07:34:43;;;;;;;4.95;3.78;;;20.00;87.20;;;;;;5011745;28;20574;-31
2023/09/22 07:37:11;;;;;;;5.10;3.92;;;19.60;87.90;;;;;;5011243;28;20077;-29
2023/09/22 07:39:38;;;;;;;4.70;4.05;;;19.50;87.00;;;;;;5011800;28;20538;-29
2023/09/22 07:42:06;;;;;;;5.55;3.95;;;19.90;70.80;;;;;;5012097;28;20140;-31
2023/09/22 07:44:33;;;;;;;4.70;3.72;;;;;;;;;;5011352;28;20133;-31
2023/09/22 07:47:00;;;;;;;6.88;4.07;;;20.20;87.60;;;;;;5011769;28;20133;-29
2023/09/22 07:49:27;;;;;;;5.03;4.22;;;;;;;;;;5011525;28;20049;-31
2023/09/22 07:51:54;;;;;;;7.72;4.22;;;20.30;77.90;;;;;;5009527;28;20128;-28
2023/09/22 07:54:21;;;;;;;6.47;3.97;;;20.10;77.50;;;;;;5014558;28;20130;-29
2023/09/22 07:56:48;;;;;;;5.85;3.83;;;20.10;88.00;;;;;;5005307;28;20042;-29
2023/09/22 07:59:16;;;;;;;6.35;3.80;;;19.90;87.60;;;;;;5007776;28;20120;-29
2023/09/22 08:01:43;;;;;;;5.22;4.00;;;;;;;;;;5009791;28;20052;-30
2023/09/22 08:04:10;;;;;;;5.45;3.90;;;19.50;87.80;;;;;;5007680;28;20138;-29
2023/09/22 08:06:37;;;;;;;8.38;4.05;;;;;;;;;;5009593;28;20053;-30
2023/09/22 08:09:04;;;;;;;4.35;3.60;;;20.70;88.00;;;;;;5010992;28;20132;-29
2023/09/22 08:11:32;;;;;;;5.28;3.70;;;;;;;;;;5011058;28;20124;-31
2023/09/22 08:13:59;;;;;;;4.45;3.50;;;;;;;;;;5013922;28;20053;-29
2023/09/22 08:16:27;;;;;;;5.68;3.78;;;19.50;87.80;;;;;;5014650;28;20070;-29
2023/09/22 08:18:55;;;;;;;5.47;3.72;;;19.40;87.40;;;;;;5014538;28;20122;-29
2023/09/22 08:21:22;;;;;;;5.47;3.22;;;19.60;78.10;;;;;;5014280;28;20049;-29
2023/09/22 08:23:49;;;;;;;5.20;3.58;;;19.60;87.60;;;;;;5013781;28;20125;-28
2023/09/22 08:26:17;;;;;;;4.50;3.30;;;19.70;88.40;;;;;;5014641;28;20045;-31
2023/09/22 08:28:44;;;;;;;4.80;3.20;;;;;;;;;;5000648;28;20054;-30
2023/09/22 08:31:11;;;;;;;4.68;3.08;;;20.60;88.10;;;;;;5005264;28;20129;-31
2023/09/22 08:33:39;;;;;;;5.50;3.42;;;19.00;71.90;;;;;;5007803;28;20050;-31
2023/09/22 08:36:06;;;;;;;3.90;3.20;;;19.30;71.40;;;;;;5014311;28;20450;-30
2023/09/22 08:38:33;;;;;;;3.28;2.90;;;21.00;88.30;;;;;;5013679;28;20128;-31
2023/09/22 08:41:03;;;;;;;4.90;3.35;;;20.00;84.60;;;;;;5007271;28;20133;-31
2023/09/22 08:43:30;;;;;;;4.60;3.10;;;19.80;87.90;;;;;;5014760;28;20237;-31
2023/09/22 08:45:57;;;;;;;4.55;3.10;;;20.30;79.80;;;;;;5014502;28;20570;-31
2023/09/22 08:48:24;;;;;;;3.83;2.90;;;19.80;88.20;;;;;;5014554;28;20049;-31
2023/09/22 08:50:53;;;;;;;3.95;2.95;;;19.90;74.80;;;;;;5014985;28;20046;-30
2023/09/22 08:53:19;;;;;;;5.65;2.85;;;20.00;87.80;;;;;;5013936;28;20046;-31
2023/09/22 08:55:49;;;;;;;5.25;2.53;;;19.80;88.00;;;;;;5034096;28;20124;-31
2023/09/22 08:58:17;;;;;;;4.05;2.90;;;20.10;78.00;;;;;;5034099;28;20053;-31
2023/09/22 09:00:45;;;;;;;5.20;2.97;;;19.20;80.50;;;;;;5019884;28;20054;-31
2023/09/22 09:03:12;;;;;;;5.03;2.80;;;19.70;87.50;;;;;;5029796;28;20093;-31
2023/09/22 09:05:40;;;;;;;4.22;2.65;;;20.10;71.80;;;;;;5014452;28;20064;-29
2023/09/22 09:08:14;;;;;;;4.30;2.53;;;19.40;87.60;;;;;;5013691;28;20038;-28
2023/09/22 09:10:42;;;;;;;4.00;2.58;;;;;;;;;;5014021;28;20141;-30
2023/09/22 09:13:12;;;;;;;3.83;2.60;;;19.70;87.40;;;;;;5014678;28;20108;-29
2023/09/22 09:15:43;;;;;;;3.70;2.53;;;19.80;70.90;;;;;;5014073;28;20050;-30
2023/09/22 09:18:11;;;;;;;3.63;2.53;;;19.80;88.30;;;;;;5013710;28;20153;-29
2023/09/22 09:20:40;;;;;;;3.38;2.30;;;19.90;87.70;;;;;;5014262;28;20056;-28
2023/09/22 09:23:26;;;;;;;3.45;2.28;;;20.20;87.80;;;;;;5013919;28;20415;-29
2023/09/22 09:25:54;;;;;;;2.75;2.30;;;20.00;71.20;;;;;;5012780;28;20554;-29
2023/09/22 09:28:21;;;;;;;3.40;2.10;;;18.90;87.20;;;;;;5013853;28;20077;-29
2023/09/22 09:30:50;;;;;;;2.80;2.00;;;20.00;87.20;;;;;;5015357;28;20133;-29
2023/09/22 09:33:17;;;;;;;2.78;2.10;;;20.00;87.40;;;;;;5013427;28;20049;-29
2023/09/22 09:35:44;;;;;;;2.97;2.05;;;19.80;78.50;;;;;;5010518;28;20081;-29
2023/09/22 09:38:12;;;;;;;3.75;2.40;;;19.30;86.80;;;;;;5006681;28;20088;-29
2023/09/22 09:40:41;;;;;;;3.13;2.30;;;19.20;87.30;;;;;;5009987;28;20121;-29
2023/09/22 09:43:10;;;;;;;2.50;2.00;;;19.90;70.80;;;;;;5011399;28;20077;-29
2023/09/22 09:45:40;;;;;;;4.70;2.20;;;19.60;84.50;;;;;;5011665;28;20061;-29
2023/09/22 09:48:09;;;;;;;5.13;2.53;;;20.20;87.70;;;;;;5012929;28;20124;-29
2023/09/22 09:50:37;;;;;;;4.38;1.88;;;;;;;;;;5010573;28;20041;-29
2023/09/22 09:53:06;;;;;;;4.68;2.10;;;19.50;87.80;;;;;;5013161;28;20129;-29
2023/09/22 09:55:34;;;;;;;3.45;2.00;;;;;;;;;;5013926;28;20521;-29
2023/09/22 09:58:03;;;;;;;5.00;1.90;;;20.10;79.00;;;;;;5012867;28;20053;-29
2023/09/22 10:00:35;;;;;;;2.70;1.70;;;20.00;78.10;;;;;;5012111;28;20176;-29
2023/09/22 10:03:02;;;;;;;2.60;1.80;;;20.30;86.40;;;;;;5011754;28;20111;-29
2023/09/22 10:05:28;;;;;;;2.90;1.80;;;20.40;87.60;;;;;;5003955;28;20049;-29
2023/09/22 10:07:57;;;;;;;3.70;1.83;;;;;;;;;;5001974;28;20471;-29
2023/09/22 10:10:23;;;;;;;3.22;1.70;;;20.70;85.70;;;;;;5012337;28;20092;-28
2023/09/22 10:12:50;;;;;;;2.92;1.80;;;20.30;87.50;;;;;;5008412;28;20107;-29
2023/09/22 10:15:42;;;;;;;2.55;1.77;;;19.90;70.40;;;;;;4999752;28;20415;-29
2023/09/22 10:18:08;;;;;;;2.58;1.75;;;19.50;87.10;;;;;;5005085;28;20472;-29
2023/09/22 10:20:43;;;;;;;2.47;1.40;;;19.90;70.40;;;;;;5003147;28;20077;-29
2023/09/22 10:23:17;;;;;;;2.42;1.70;;;19.90;70.30;;;;;;5010578;28;20154;-29
2023/09/22 10:25:44;;;;;;;4.03;1.80;;;;;;;;;;5012606;28;20064;-29
2023/09/22 10:28:12;;;;;;;2.33;1.50;;;18.80;86.50;;;;;;5012315;28;20137;-29
2023/09/22 10:31:04;;;;;;;5.57;1.65;;;20.30;87.10;;;;;;5012462;28;20049;-29
2023/09/22 10:33:32;;;;;;;3.20;1.60;;;20.80;87.10;;;;;;4993005;28;20077;-29
2023/09/22 10:35:59;;;;;;;1.90;1.52;;;20.00;77.40;;;;;;5005629;28;20077;-29
2023/09/22 10:38:26;;;;;;;2.60;1.60;;;20.00;79.90;;;;;;5010856;28;20049;-29
2023/09/22 10:41:05;;;;;;;3.10;1.80;;;20.00;70.00;;;;;;5010517;28;20054;-29
2023/09/22 10:43:33;;;;;;;2.05;1.50;;;;;;;;;;5010483;28;20056;-30
2023/09/22 10:46:00;;;;;;;6.43;1.70;;;;;;;;;;5011197;28;20526;-28
2023/09/22 10:48:34;;;;;;;3.25;1.60;;;20.40;83.60;;;;;;5010773;28;20156;-29
2023/09/22 10:51:02;;;;;;;3.45;1.83;;;;;;;;;;5010900;28;20050;-31
2023/09/22 10:53:29;;;;;;;1.90;1.52;;;19.30;85.20;;;;;;5012320;28;20046;-31
2023/09/22 10:55:58;;;;;;;3.00;1.40;;;20.00;70.00;;;;;;5032232;28;20095;-31
2023/09/22 10:58:26;;;;;;;5.95;1.80;;;20.20;79.30;;;;;;5025338;28;20053;-31
2023/09/22 11:00:56;;;;;;;3.00;1.45;;;19.80;76.60;;;;;;5012303;28;20078;-31
2023/09/22 11:03:24;;;;;;;3.00;1.67;;;19.80;86.60;;;;;;5012223;28;20137;-31
2023/09/22 11:05:58;;;;;;;4.57;1.98;;;20.10;70.10;;;;;;5012445;28;20056;-31
2023/09/22 11:08:25;;;;;;;2.58;1.58;;;20.40;86.40;;;;;;5011603;28;20077;-31
2023/09/22 11:10:53;;;;;;;2.75;1.45;;;20.00;86.40;;;;;;5012242;28;20125;-31
2023/09/22 11:13:21;;;;;;;2.53;1.42;;;20.30;86.40;;;;;;5012203;28;20087;-32
2023/09/22 11:15:49;;;;;;;3.33;1.50;;;20.20;86.40;;;;;;5012168;28;20050;-31
2023/09/22 11:18:23;;;;;;;8.02;1.85;;;19.80;86.40;;;;;;5012185;28;20049;-31
2023/09/22 11:20:54;;;;;;;3.70;1.70;;;19.50;86.00;;;;;;5012247;28;20169;-31
2023/09/22 11:23:22;;;;;;;4.85;1.80;;;20.10;70.00;;;;;;5012261;28;20080;-30
2023/09/22 11:25:56;;;;;;;3.05;1.52;;;20.10;70.00;;;;;;5011742;28;20129;-30
2023/09/22 11:28:23;;;;;;;3.38;1.50;;;;;;;;;;5011730;28;20133;-30
2023/09/22 11:30:51;;;;;;;3.65;1.58;;;19.60;86.80;;;;;;5012027;28;20056;-31
2023/09/22 11:33:18;;;;;;;2.53;1.40;;;20.10;86.80;;;;;;5011675;28;20491;-31
2023/09/22 11:35:45;;;;;;;2.28;1.42;;;;;;;;;;5011717;28;20211;-31
2023/09/22 11:38:27;;;;;;;2.60;1.60;;;19.40;72.30;;;;;;5011267;28;20141;-31
2023/09/22 11:41:04;;;;;;;3.08;1.40;;;20.70;76.30;;;;;;5011422;28;20451;-31
2023/09/22 11:43:31;;;;;;;2.67;1.35;;;;;;;;;;5012158;28;20050;-31
2023/09/22 11:46:08;;;;;;;1.92;1.40;;;20.20;85.90;;;;;;5011621;28;20125;-32
2023/09/22 11:48:55;;;;;;;3.35;1.30;;;20.70;86.20;;;;;;5013847;28;20411;-32
2023/09/22 11:51:22;;;;;;;2.30;1.40;;;20.40;70.20;;;;;;5015467;28;20112;-31
2023/09/22 11:53:50;;;;;;;2.78;1.40;;;19.80;85.60;;;;;;5019460;28;20125;-31
2023/09/22 11:56:17;;;;;;;3.35;1.35;;;20.40;82.30;;;;;;5010686;28;20041;-32
2023/09/22 11:58:44;;;;;;;2.20;1.30;;;;;;;;;;5015360;28;20045;-30
2023/09/22 12:01:11;;;;;;;3.25;1.50;;;20.10;85.40;;;;;;5015683;28;20084;-31
2023/09/22 12:03:38;;;;;;;2.33;1.40;;;19.90;85.40;;;;;;5016013;28;20137;-31
2023/09/22 12:06:05;;;;;;;2.95;1.40;;;20.40;77.70;;;;;;5015358;28;20484;-28
2023/09/22 12:08:31;;;;;;;3.97;1.40;;;19.80;85.60;;;;;;5015084;28;20133;-29
2023/09/22 12:11:00;;;;;;;2.72;1.50;;;20.30;85.50;;;;;;5015272;28;20100;-29
2023/09/22 12:13:27;;;;;;;1.98;1.30;;;19.90;85.70;;;;;;5015183;28;20499;-29
2023/09/22 12:15:55;;;;;;;2.75;1.40;;;;;;;;;;5014114;28;20050;-31
2023/09/22 12:18:23;;;;;;;3.92;1.33;;;19.30;85.40;;;;;;5014767;28;20081;-29
2023/09/22 12:20:50;;;;;;;1.60;1.30;;;;;;;;;;5015177;28;20403;-30
2023/09/22 12:23:16;;;;;;;2.20;1.40;;;20.30;85.40;;;;;;5015229;28;20468;-29
2023/09/22 12:25:43;;;;;;;4.00;1.42;;;19.20;73.70;;;;;;5015219;28;20141;-29
2023/09/22 12:28:11;;;;;;;2.80;1.40;;;21.00;86.10;;;;;;5014938;28;20562;-29
2023/09/22 12:30:38;;;;;;;2.60;1.40;;;19.70;86.00;;;;;;5014766;28;20132;-29
2023/09/22 12:33:05;;;;;;;2.05;1.40;;;21.00;85.90;;;;;;5013840;28;20483;-28
2023/09/22 12:35:32;;;;;;;2.25;1.30;;;;;;;;;;5015000;28;20054;-29
2023/09/22 12:38:00;;;;;;;1.63;1.20;;;19.00;84.80;;;;;;5013895;28;20150;-29
2023/09/22 12:40:27;;;;;;;1.73;1.30;;;21.00;85.90;;;;;;5014907;28;20058;-29
2023/09/22 12:42:54;;;;;;;1.60;1.30;;;;;;;;;;5014843;28;20586;-29
2023/09/22 12:45:22;;;;;;;2.28;1.27;;;18.90;85.10;;;;;;5014896;28;20050;-29
2023/09/22 12:47:49;;;;;;;2.70;1.25;;;19.60;85.10;;;;;;5014343;28;20513;-29
2023/09/22 12:50:16;;;;;;;2.88;1.20;;;;;;;;;;5014128;28;20154;-29
2023/09/22 12:52:43;;;;;;;2.25;1.15;;;20.20;85.90;;;;;;5014668;28;20569;-29
2023/09/22 12:55:11;;;;;;;1.83;1.23;;;20.00;69.00;;;;;;5014405;28;20144;-30
2023/09/22 12:57:38;;;;;;;2.05;1.08;;;;;;;;;;5014462;28;20046;-29
2023/09/22 13:00:06;;;;;;;1.50;1.10;;;20.30;85.90;;;;;;5013128;28;20050;-29
2023/09/22 13:02:34;;;;;;;1.25;1.10;;;20.20;84.80;;;;;;5014210;28;20490;-29
2023/09/22 13:05:01;;;;;;;1.85;1.23;;;20.10;85.90;;;;;;5014461;28;20050;-29
2023/09/22 13:07:28;;;;;;;2.22;1.10;;;;;;;;;;5013955;28;20140;-30
2023/09/22 13:09:55;;;;;;;2.72;1.20;;;19.10;85.10;;;;;;5014231;28;20132;-29
2023/09/22 13:12:22;;;;;;;1.50;1.10;;;20.20;85.70;;;;;;5014287;28;20128;-32